Aérodrome :
LOGIN :

S'inscrire | Disclaimer

   EN    FR    IT 

 










Légende :    VFR   VFR Marginal   IFR   IFR Intensif   IFR Très Intensif
Visi : 
Plafond : 
>= 8 km
>= 3000ft
5 à 8 km
1000 à 3000 ft
1500m à 5 km
500 à 1000 ft
800 à 1500m
200 à 500 ft
< 800m
< 200 ft
Symboles :   Orages  Brouillard  Fortes neiges  Fortes précipitations  Vent > 20 kt
SIGMETs :   Divers  Orages  Givrage  Turbulence  Onde Orograph.  Cendres Volcan.






- Altitude de l'aérodrome : 100 ft


EBDT - Schaffen

DERNIER METAR :
  • 240125Z AUTO VRB02KT 0550 FG SCT002/// BKN033/// OVC043/// 01/01 Q1025 RED

METARs EXPIRÉS :
  • 240055Z AUTO 18003KT 0200 FG OVC007/// 01/01 Q1026 RED
  • 240025Z AUTO VRB02KT 0150 FG OVC011/// 01/01 Q1026 RED
  • 232355Z AUTO VRB01KT 0150 FG OVC007/// 01/01 Q1026 RED
  • 232325Z AUTO VRB02KT 0250 FG OVC009/// 01/01 Q1026 RED
  • 232255Z AUTO 13003KT 0500 FG OVC013/// 01/01 Q1026 RED

TAF TAF EBDT
Valide du 23 à 19h jusqu'au 24 à 07h UTC


231541Z 2319/2407 VRB03KT 2500 BR SCT006 BKN008
BECMG 2319/2321 1600 BR
BECMG 2323/2401 0700 FG FZFG BKN001



MET'MAP, la Météo Aéronautique d'un coup d'oeil ! - Copyright ORBIFLY Décembre 2007 - Disclaimer

ORBIFLY MET'MAP TEAM :

Programmation & Développement : Alexandra Zaïnal
Sur une idée originale de : Baudouin d'Aumeries
Assistance à la programmation : Marc-Olivier Méhu
Soutien technique & logistique : Manuel Goepfert

Contact : metmap@orbifly.com




SOURCES & CREDITS :

   NOAA